Time;durP1;ratioP1;P1;durP2;ratioP2;P2;SDS_P1;SDS_P2;PMS_P1;PMS_P2;Temp;Humidity;BMP_temperature;BMP_pressure;BME280_temperature;BME280_humidity;BME280_pressure;Samples;Min_cycle;Max_cycle;Signal;HPM_P1;HPM_P2
2022/05/18 00:01:11;;;;;;;2.90;2.10;;;23.50;58.50;;;;;;4995647;28;20479;-66
2022/05/18 00:03:42;;;;;;;2.53;2.33;;;23.40;58.50;;;;;;4995899;28;21128;-66
2022/05/18 00:06:10;;;;;;;6.10;1.80;;;23.40;58.70;;;;;;4996530;28;20443;-66
2022/05/18 00:08:37;;;;;;;2.47;2.27;;;23.30;58.90;;;;;;4996722;28;20478;-66
2022/05/18 00:11:06;;;;;;;3.40;2.20;;;23.30;59.10;;;;;;4996392;28;20444;-66
2022/05/18 00:13:33;;;;;;;3.90;2.60;;;23.30;59.40;;;;;;4995788;28;20440;-66
2022/05/18 00:16:00;;;;;;;4.07;2.30;;;23.20;59.60;;;;;;4997128;28;20452;-66
2022/05/18 00:18:26;;;;;;;3.40;2.10;;;23.20;59.80;;;;;;4996336;28;20572;-66
2022/05/18 00:20:54;;;;;;;2.50;2.00;;;23.10;60.00;;;;;;4996369;28;20463;-66
2022/05/18 00:23:21;;;;;;;4.00;2.50;;;23.10;60.20;;;;;;4995532;28;20488;-66
2022/05/18 00:25:48;;;;;;;2.67;2.37;;;23.10;60.80;;;;;;4995990;28;20448;-66
2022/05/18 00:28:15;;;;;;;4.67;2.23;;;23.00;61.30;;;;;;4995061;28;21035;-66
2022/05/18 00:30:41;;;;;;;3.23;2.33;;;22.90;61.70;;;;;;4995148;28;20487;-66
2022/05/18 00:33:09;;;;;;;4.90;2.40;;;22.90;61.90;;;;;;4995327;28;20448;-66
2022/05/18 00:35:38;;;;;;;3.17;2.40;;;22.80;62.10;;;;;;4995329;28;20456;-66
2022/05/18 00:38:07;;;;;;;2.67;2.23;;;22.70;62.60;;;;;;4995123;28;20471;-66
2022/05/18 00:40:34;;;;;;;4.13;3.00;;;22.60;62.50;;;;;;4994871;28;20463;-66
2022/05/18 00:43:01;;;;;;;2.57;2.37;;;22.60;62.90;;;;;;4995030;28;20487;-66
2022/05/18 00:45:28;;;;;;;7.63;3.13;;;22.40;63.10;;;;;;4995072;28;20451;-66
2022/05/18 00:47:55;;;;;;;2.90;2.60;;;22.40;63.60;;;;;;4994948;28;20468;-66
2022/05/18 00:50:24;;;;;;;3.20;2.70;;;22.30;64.30;;;;;;4995015;28;20452;-66
2022/05/18 00:52:55;;;;;;;4.73;2.90;;;22.20;64.20;;;;;;4994920;28;20815;-70
2022/05/18 00:55:26;;;;;;;4.47;2.90;;;22.00;64.10;;;;;;4994663;28;20937;-69
2022/05/18 00:57:57;;;;;;;2.60;2.33;;;22.00;64.50;;;;;;4994760;28;20477;-68
2022/05/18 01:00:24;;;;;;;4.07;2.90;;;21.90;65.00;;;;;;4994854;28;20472;-69
2022/05/18 01:02:56;;;;;;;5.07;3.20;;;21.90;65.40;;;;;;4994754;28;21057;-68
2022/05/18 01:05:30;;;;;;;3.27;2.30;;;21.90;65.50;;;;;;4994724;28;20475;-68
2022/05/18 01:07:59;;;;;;;4.63;2.60;;;21.80;66.00;;;;;;4994522;28;20851;-68
2022/05/18 01:10:29;;;;;;;3.23;2.87;;;21.70;66.60;;;;;;4994607;28;20448;-68
2022/05/18 01:12:56;;;;;;;2.80;2.60;;;21.70;67.10;;;;;;4994577;28;20499;-68
2022/05/18 01:15:24;;;;;;;4.57;3.03;;;21.60;67.10;;;;;;4994577;28;20455;-68
2022/05/18 01:17:56;;;;;;;3.47;2.63;;;21.60;67.60;;;;;;4995134;28;20475;-68
2022/05/18 01:20:25;;;;;;;3.33;2.57;;;21.50;68.00;;;;;;4994393;28;20907;-68
2022/05/18 01:23:04;;;;;;;4.23;2.90;;;21.50;68.40;;;;;;4994496;28;20507;-68
2022/05/18 01:25:45;;;;;;;5.00;2.80;;;21.50;68.80;;;;;;4994143;28;20443;-66
2022/05/18 01:28:13;;;;;;;3.37;2.77;;;21.50;69.20;;;;;;4994052;28;21000;-66
2022/05/18 01:30:45;;;;;;;4.83;3.13;;;21.40;69.30;;;;;;4994409;28;20464;-66
2022/05/18 01:33:13;;;;;;;3.70;3.10;;;21.40;69.60;;;;;;4994479;28;20429;-66
2022/05/18 01:35:42;;;;;;;4.73;2.73;;;21.40;70.10;;;;;;4994371;28;20460;-66
2022/05/18 01:38:12;;;;;;;2.70;2.50;;;21.40;70.40;;;;;;4994493;28;20476;-66
2022/05/18 01:40:46;;;;;;;2.93;2.67;;;21.40;70.90;;;;;;4994389;28;20544;-66
2022/05/18 01:43:18;;;;;;;3.20;2.20;;;21.30;71.00;;;;;;4994403;28;20559;-66
2022/05/18 01:45:50;;;;;;;2.47;2.27;;;21.30;71.20;;;;;;4994132;28;20464;-66
2022/05/18 01:48:18;;;;;;;4.20;2.50;;;21.30;71.30;;;;;;4994415;28;20475;-66
2022/05/18 01:50:45;;;;;;;2.90;2.70;;;21.20;71.40;;;;;;4994245;28;20460;-66
2022/05/18 01:53:12;;;;;;;6.50;3.37;;;21.20;71.60;;;;;;4993916;28;20786;-66
2022/05/18 01:55:39;;;;;;;3.43;2.93;;;21.20;71.80;;;;;;4994066;28;20452;-66
2022/05/18 01:58:07;;;;;;;2.97;2.77;;;21.20;72.10;;;;;;4994153;28;20468;-66
2022/05/18 02:00:35;;;;;;;4.27;2.60;;;21.10;72.20;;;;;;4993853;28;20459;-66
2022/05/18 02:03:02;;;;;;;3.43;2.87;;;21.10;72.60;;;;;;4993987;28;20488;-67
2022/05/18 02:05:29;;;;;;;5.50;3.37;;;21.10;72.60;;;;;;4994207;28;20451;-68
2022/05/18 02:07:57;;;;;;;5.17;3.80;;;21.10;73.10;;;;;;4994133;28;20464;-68
2022/05/18 02:10:24;;;;;;;6.67;4.03;;;21.10;73.30;;;;;;4993716;28;21039;-68
2022/05/18 02:12:51;;;;;;;6.20;2.77;;;21.00;73.50;;;;;;4993593;28;20831;-68
2022/05/18 02:15:18;;;;;;;7.77;3.93;;;21.00;73.70;;;;;;4993903;28;20799;-68
2022/05/18 02:17:46;;;;;;;4.10;3.80;;;21.00;73.80;;;;;;4993762;28;20476;-67
2022/05/18 02:20:13;;;;;;;10.40;3.90;;;20.90;73.90;;;;;;4993943;28;20440;-68
2022/05/18 02:22:40;;;;;;;5.30;3.30;;;20.90;74.10;;;;;;4993790;28;20444;-68
2022/05/18 02:25:08;;;;;;;4.57;3.33;;;20.90;74.30;;;;;;4993823;28;20467;-68
2022/05/18 02:27:35;;;;;;;4.37;3.80;;;20.90;74.50;;;;;;4993415;28;20841;-68
2022/05/18 02:30:03;;;;;;;4.73;3.07;;;20.90;74.60;;;;;;4993833;28;20448;-67
2022/05/18 02:32:30;;;;;;;4.70;3.70;;;20.80;74.60;;;;;;4993760;28;20503;-67
2022/05/18 02:34:58;;;;;;;6.73;3.87;;;20.80;74.90;;;;;;4993780;28;20451;-67
2022/05/18 02:37:26;;;;;;;4.60;3.50;;;20.80;75.10;;;;;;4996045;28;20471;-66
2022/05/18 02:39:53;;;;;;;4.63;4.00;;;20.80;75.20;;;;;;4996986;28;20502;-66
2022/05/18 02:42:19;;;;;;;7.33;3.90;;;20.80;75.50;;;;;;4997326;28;20459;-66
2022/05/18 02:44:48;;;;;;;5.73;3.70;;;20.70;75.60;;;;;;4997253;28;20488;-66
2022/05/18 02:47:15;;;;;;;6.63;4.17;;;20.70;75.80;;;;;;4997194;28;20512;-66
2022/05/18 02:49:41;;;;;;;6.03;3.33;;;20.70;75.80;;;;;;4998077;28;20459;-66
2022/05/18 02:52:09;;;;;;;6.97;4.43;;;20.70;76.00;;;;;;4997099;28;20451;-66
2022/05/18 02:57:21;;;;;;;4.10;3.63;;;20.60;76.20;;;;;;4997363;28;20575;-66
2022/05/18 02:59:49;;;;;;;5.20;3.83;;;20.60;76.30;;;;;;4996921;28;20480;-66
2022/05/18 03:02:16;;;;;;;4.93;3.57;;;20.60;76.40;;;;;;4997200;28;20876;-66
2022/05/18 03:04:42;;;;;;;4.60;4.20;;;20.60;76.60;;;;;;4996906;28;20487;-66
2022/05/18 03:07:11;;;;;;;5.33;3.57;;;20.50;76.70;;;;;;4996789;28;20478;-66
2022/05/18 03:09:38;;;;;;;4.50;3.60;;;20.50;76.80;;;;;;4996779;28;20449;-66
2022/05/18 03:12:05;;;;;;;7.83;4.30;;;20.50;77.10;;;;;;4996811;28;20917;-66
2022/05/18 03:14:32;;;;;;;6.63;4.10;;;20.40;77.10;;;;;;4996368;28;20791;-66
2022/05/18 03:17:00;;;;;;;4.47;3.33;;;20.40;77.20;;;;;;4996668;28;20479;-66
2022/05/18 03:19:27;;;;;;;7.37;4.40;;;20.40;77.30;;;;;;4996666;28;20444;-66
2022/05/18 03:24:39;;;;;;;4.33;3.90;;;20.40;77.50;;;;;;4996670;28;20451;-66
2022/05/18 03:27:06;;;;;;;6.13;4.00;;;20.30;77.60;;;;;;4996505;28;20542;-66
2022/05/18 03:29:33;;;;;;;5.37;4.40;;;20.30;77.80;;;;;;4996534;28;20491;-69
2022/05/18 03:32:00;;;;;;;4.73;4.10;;;20.30;78.00;;;;;;4996454;28;20469;-70
2022/05/18 03:34:27;;;;;;;4.60;4.10;;;20.30;78.20;;;;;;4996568;28;20432;-70
2022/05/18 03:36:54;;;;;;;5.03;4.47;;;20.30;78.30;;;;;;4996413;28;20861;-69
2022/05/18 03:39:20;;;;;;;5.80;4.63;;;20.20;78.30;;;;;;4996321;28;20452;-69
2022/05/18 03:41:48;;;;;;;8.87;5.00;;;20.30;78.50;;;;;;4996511;28;20455;-70
2022/05/18 03:44:15;;;;;;;6.10;4.53;;;20.20;78.50;;;;;;4997124;28;20693;-70
2022/05/18 03:46:42;;;;;;;6.57;5.00;;;20.20;78.60;;;;;;4996111;28;20965;-70
2022/05/18 03:49:09;;;;;;;5.80;4.60;;;20.20;78.70;;;;;;4996730;28;20444;-70
2022/05/18 03:51:37;;;;;;;4.90;4.37;;;20.20;78.80;;;;;;4997055;28;20448;-70
2022/05/18 03:54:04;;;;;;;5.70;4.27;;;20.10;78.80;;;;;;4996847;28;20488;-70
2022/05/18 03:56:30;;;;;;;7.33;4.43;;;20.10;78.70;;;;;;4997452;28;20448;-69
2022/05/18 03:59:00;;;;;;;8.07;4.20;;;20.10;78.70;;;;;;4996990;28;20432;-69
2022/05/18 04:01:27;;;;;;;8.77;4.27;;;20.10;78.90;;;;;;4996409;28;20506;-66
2022/05/18 04:03:55;;;;;;;6.87;5.17;;;20.10;79.00;;;;;;4996747;28;20487;-66
2022/05/18 04:06:21;;;;;;;6.90;4.20;;;20.10;79.10;;;;;;4995524;28;20789;-66
2022/05/18 04:08:49;;;;;;;7.30;5.00;;;20.10;78.80;;;;;;4995436;28;20475;-67
2022/05/18 04:11:16;;;;;;;12.03;5.17;;;20.10;78.90;;;;;;4995795;28;20467;-67
2022/05/18 04:13:43;;;;;;;6.20;5.07;;;20.10;79.30;;;;;;4995306;28;20954;-67
2022/05/18 04:16:11;;;;;;;6.17;4.80;;;20.10;79.60;;;;;;4995587;28;20445;-66
2022/05/18 04:18:38;;;;;;;9.40;4.87;;;20.10;79.60;;;;;;4995409;28;20479;-67
2022/05/18 04:21:06;;;;;;;7.60;5.20;;;20.10;79.80;;;;;;4995578;28;20452;-67
2022/05/18 04:23:33;;;;;;;7.53;4.13;;;20.10;80.10;;;;;;4995034;28;20579;-67
2022/05/18 04:26:00;;;;;;;5.63;4.50;;;20.10;80.20;;;;;;4995387;28;20471;-68
2022/05/18 04:28:27;;;;;;;5.13;4.53;;;20.10;80.40;;;;;;4995327;28;20471;-68
2022/05/18 04:30:54;;;;;;;5.67;3.90;;;20.10;80.30;;;;;;4995408;28;20455;-68
2022/05/18 04:33:24;;;;;;;6.40;3.60;;;20.10;79.90;;;;;;4995263;28;20455;-68
2022/05/18 04:35:51;;;;;;;6.80;4.60;;;20.10;79.60;;;;;;4996290;28;20484;-68
2022/05/18 04:38:19;;;;;;;7.57;4.20;;;20.20;79.40;;;;;;4995104;28;20472;-68
2022/05/18 04:40:47;;;;;;;6.50;4.87;;;20.10;78.90;;;;;;4995105;28;20451;-68
2022/05/18 04:43:16;;;;;;;4.80;4.20;;;20.20;78.60;;;;;;4995037;28;20432;-67
2022/05/18 04:45:45;;;;;;;5.70;4.37;;;20.20;78.70;;;;;;4995119;28;20487;-66
2022/05/18 04:48:15;;;;;;;4.97;4.53;;;20.20;78.50;;;;;;4994940;28;20507;-67
2022/05/18 04:50:44;;;;;;;5.20;4.30;;;20.20;78.40;;;;;;4994913;28;20456;-67
2022/05/18 04:53:11;;;;;;;6.10;4.40;;;20.30;78.30;;;;;;4994852;28;20958;-67
2022/05/18 04:55:37;;;;;;;5.50;4.97;;;20.30;78.70;;;;;;4994806;28;20444;-67
2022/05/18 04:58:05;;;;;;;7.00;4.43;;;20.30;79.20;;;;;;4994743;28;20475;-68
2022/05/18 05:00:32;;;;;;;7.67;4.60;;;20.40;79.80;;;;;;4994044;28;20507;-68
2022/05/18 05:03:00;;;;;;;5.30;4.60;;;20.40;80.10;;;;;;4994838;28;20452;-68
2022/05/18 05:05:28;;;;;;;8.07;4.80;;;20.40;80.10;;;;;;4994556;28;20480;-68
2022/05/18 05:07:57;;;;;;;6.40;4.90;;;20.50;80.10;;;;;;4994549;28;20813;-68
2022/05/18 05:10:24;;;;;;;6.53;5.10;;;20.50;80.10;;;;;;4994703;28;20455;-68
2022/05/18 05:12:51;;;;;;;5.47;4.20;;;20.60;80.00;;;;;;4994578;28;20448;-67
2022/05/18 05:15:18;;;;;;;5.07;3.93;;;20.60;79.60;;;;;;4994561;28;20437;-67
2022/05/18 05:17:45;;;;;;;4.80;4.33;;;20.60;79.20;;;;;;4994507;28;20483;-67
2022/05/18 05:20:12;;;;;;;8.20;5.20;;;20.70;78.60;;;;;;4994302;28;20448;-67
2022/05/18 05:22:39;;;;;;;4.60;4.20;;;20.70;78.40;;;;;;4994590;28;20452;-67
2022/05/18 05:25:09;;;;;;;7.43;4.30;;;20.70;78.40;;;;;;4994480;28;20486;-67
2022/05/18 05:27:36;;;;;;;6.20;4.90;;;20.80;78.40;;;;;;4994069;28;20468;-67
2022/05/18 05:30:04;;;;;;;9.10;5.03;;;20.90;78.40;;;;;;4994105;28;20968;-67
2022/05/18 05:32:31;;;;;;;6.40;4.63;;;20.90;78.40;;;;;;4994512;28;20452;-67
2022/05/18 05:34:57;;;;;;;8.10;4.93;;;21.00;78.80;;;;;;4994431;28;20796;-67
2022/05/18 05:37:24;;;;;;;5.57;3.90;;;21.10;78.30;;;;;;4994367;28;20491;-69
2022/05/18 05:39:51;;;;;;;7.10;4.57;;;21.20;78.10;;;;;;4994239;28;20460;-69
2022/05/18 05:42:19;;;;;;;6.53;4.40;;;21.20;78.20;;;;;;4994249;28;20443;-68
2022/05/18 05:44:45;;;;;;;4.30;3.90;;;21.30;78.10;;;;;;4994105;28;20515;-68
2022/05/18 05:47:12;;;;;;;5.17;4.20;;;21.40;77.70;;;;;;4993995;28;20476;-66
2022/05/18 05:49:39;;;;;;;5.53;3.80;;;21.50;77.40;;;;;;4994276;28;20429;-66
2022/05/18 05:52:08;;;;;;;9.07;4.57;;;21.60;77.10;;;;;;4993875;28;20448;-66
2022/05/18 05:54:35;;;;;;;7.90;4.47;;;21.60;76.70;;;;;;4993687;28;20866;-66
2022/05/18 05:57:04;;;;;;;10.87;4.77;;;21.70;76.30;;;;;;4994070;28;20823;-66
2022/05/18 05:59:33;;;;;;;7.30;4.10;;;21.80;75.40;;;;;;4993897;28;20506;-66
2022/05/18 06:02:00;;;;;;;9.23;4.10;;;21.80;75.20;;;;;;4993797;28;20460;-67
2022/05/18 06:04:30;;;;;;;5.97;3.73;;;22.00;74.80;;;;;;4994010;28;20523;-68
2022/05/18 06:06:57;;;;;;;4.33;3.83;;;22.10;74.20;;;;;;4993660;28;20464;-68
2022/05/18 06:09:24;;;;;;;7.60;4.47;;;22.20;73.80;;;;;;4993963;28;20448;-68
2022/05/18 06:11:50;;;;;;;6.93;3.73;;;22.20;73.50;;;;;;4995277;28;20802;-68
2022/05/18 06:14:17;;;;;;;11.07;4.20;;;22.30;73.20;;;;;;4997890;28;20483;-68
2022/05/18 06:16:46;;;;;;;4.87;4.10;;;22.40;72.60;;;;;;4997532;28;20937;-69
2022/05/18 06:19:13;;;;;;;7.40;4.40;;;22.50;71.60;;;;;;4997455;28;20444;-68
2022/05/18 06:21:40;;;;;;;4.27;3.87;;;22.70;71.20;;;;;;4997504;28;20965;-68
2022/05/18 06:24:08;;;;;;;4.90;4.20;;;22.80;71.10;;;;;;4997630;28;20475;-68
2022/05/18 06:26:36;;;;;;;8.00;4.70;;;22.90;70.90;;;;;;4997605;28;20455;-68
2022/05/18 06:29:03;;;;;;;3.60;3.30;;;23.00;70.30;;;;;;4997592;28;20447;-66
2022/05/18 06:31:30;;;;;;;7.43;4.50;;;23.20;70.00;;;;;;4997279;28;20976;-66
2022/05/18 06:33:58;;;;;;;6.57;4.23;;;23.30;69.50;;;;;;4997508;28;20448;-66
2022/05/18 06:36:25;;;;;;;5.30;3.50;;;23.40;69.10;;;;;;4997507;28;20452;-66
2022/05/18 06:38:52;;;;;;;6.67;3.60;;;23.50;68.50;;;;;;4996997;28;21000;-67
2022/05/18 06:41:25;;;;;;;5.00;2.60;;;23.60;67.10;;;;;;4997365;28;20440;-66
2022/05/18 06:43:53;;;;;;;4.50;2.60;;;23.80;65.70;;;;;;4997306;28;20436;-66
2022/05/18 06:46:21;;;;;;;2.87;2.57;;;23.90;62.20;;;;;;4996987;28;20977;-67
2022/05/18 06:48:48;;;;;;;3.47;2.60;;;23.90;59.70;;;;;;4997023;28;20507;-67
2022/05/18 06:51:22;;;;;;;4.10;3.07;;;24.00;59.60;;;;;;4997283;28;20491;-67
2022/05/18 06:53:51;;;;;;;5.40;2.60;;;24.10;58.90;;;;;;4997184;28;20444;-67
2022/05/18 06:56:19;;;;;;;2.90;2.47;;;24.30;58.40;;;;;;4996827;28;20528;-67
2022/05/18 06:58:47;;;;;;;4.23;2.33;;;24.40;58.20;;;;;;4996961;28;20498;-67
2022/05/18 07:01:14;;;;;;;5.80;2.40;;;24.50;58.30;;;;;;4996619;28;20460;-67
2022/05/18 07:03:41;;;;;;;4.87;2.57;;;24.70;57.80;;;;;;4996723;28;20929;-66
2022/05/18 07:06:08;;;;;;;4.73;3.07;;;24.80;57.40;;;;;;4997045;28;20832;-67
2022/05/18 07:08:37;;;;;;;5.03;2.63;;;25.00;57.00;;;;;;4996797;28;20533;-67
2022/05/18 07:11:04;;;;;;;8.77;2.57;;;25.00;56.00;;;;;;4996704;28;20927;-67
2022/05/18 07:13:31;;;;;;;6.87;2.40;;;25.10;56.20;;;;;;4996862;28;20461;-67
2022/05/18 07:15:59;;;;;;;4.00;2.33;;;25.30;55.50;;;;;;4996621;28;20535;-65
2022/05/18 07:18:29;;;;;;;4.20;2.47;;;25.40;54.90;;;;;;4996828;28;20498;-65
2022/05/18 07:20:56;;;;;;;4.23;2.73;;;25.60;54.90;;;;;;4996979;28;20437;-65
2022/05/18 07:23:23;;;;;;;5.90;2.77;;;25.80;54.00;;;;;;4996460;28;20463;-65
2022/05/18 07:25:51;;;;;;;3.40;2.87;;;25.90;53.30;;;;;;4996962;28;20468;-65
2022/05/18 07:28:17;;;;;;;3.80;2.50;;;25.90;53.10;;;;;;4997011;28;20475;-65
2022/05/18 07:30:44;;;;;;;4.50;2.60;;;26.00;53.30;;;;;;4997749;28;20448;-65
2022/05/18 07:33:11;;;;;;;3.90;2.23;;;26.00;52.20;;;;;;4997880;28;20468;-65
2022/05/18 07:35:38;;;;;;;7.33;2.50;;;26.10;52.10;;;;;;4998022;28;20578;-65
2022/05/18 07:38:05;;;;;;;3.63;2.37;;;26.10;52.10;;;;;;4997630;28;20476;-66
2022/05/18 07:40:33;;;;;;;2.80;2.30;;;26.20;52.30;;;;;;4997669;28;20432;-65
2022/05/18 07:43:01;;;;;;;3.07;2.27;;;26.40;51.40;;;;;;4997435;28;20467;-65
2022/05/18 07:45:29;;;;;;;2.47;2.27;;;26.40;50.80;;;;;;4996873;28;20483;-66
2022/05/18 07:47:56;;;;;;;3.40;2.57;;;26.60;50.70;;;;;;4996214;28;20465;-65
2022/05/18 07:50:25;;;;;;;4.77;2.30;;;26.80;50.10;;;;;;4996194;28;20436;-65
2022/05/18 07:52:57;;;;;;;5.10;2.53;;;27.00;49.80;;;;;;4996083;28;20436;-65
2022/05/18 07:55:24;;;;;;;5.43;2.90;;;27.20;49.00;;;;;;4996118;28;20433;-65
2022/05/18 07:57:50;;;;;;;3.90;2.13;;;27.40;48.40;;;;;;4995957;28;20479;-66
2022/05/18 08:00:20;;;;;;;3.77;2.87;;;27.60;48.60;;;;;;4995526;28;20472;-65
2022/05/18 08:02:47;;;;;;;3.63;2.67;;;27.80;48.00;;;;;;4996115;28;20436;-65
2022/05/18 08:05:14;;;;;;;3.57;3.20;;;28.00;47.10;;;;;;4995810;28;20465;-66
2022/05/18 08:07:45;;;;;;;3.67;2.07;;;28.10;46.70;;;;;;4995728;28;20460;-66
2022/05/18 08:15:49;;;;;;;7.13;2.87;;;28.70;44.90;;;;;;4958089;28;20526;-68
2022/05/18 08:18:16;;;;;;;5.63;2.27;;;28.80;44.70;;;;;;4995600;28;20465;-69
2022/05/18 08:20:48;;;;;;;5.63;2.30;;;28.90;44.60;;;;;;4995624;28;20456;-68
2022/05/18 08:23:16;;;;;;;6.37;2.27;;;29.00;44.00;;;;;;4995621;28;20436;-68
2022/05/18 08:25:46;;;;;;;2.30;2.10;;;29.10;42.60;;;;;;4995410;28;20485;-69
2022/05/18 08:28:13;;;;;;;2.40;1.80;;;29.10;41.90;;;;;;4995002;28;20476;-69
2022/05/18 08:30:42;;;;;;;5.83;2.50;;;29.20;42.20;;;;;;4995094;28;20447;-68
2022/05/18 08:33:11;;;;;;;5.80;1.90;;;29.30;41.90;;;;;;4995239;28;20433;-69
2022/05/18 08:35:39;;;;;;;5.13;2.93;;;29.40;41.90;;;;;;4994686;28;20433;-69
2022/05/18 08:38:07;;;;;;;5.47;2.90;;;29.50;41.80;;;;;;4995214;28;20484;-69
2022/05/18 08:40:40;;;;;;;3.47;2.10;;;29.70;41.90;;;;;;4995281;28;20448;-66
2022/05/18 08:43:09;;;;;;;4.33;2.10;;;29.90;41.10;;;;;;4995188;28;20436;-68
2022/05/18 08:45:39;;;;;;;3.63;2.37;;;30.20;40.90;;;;;;4994772;28;20830;-68
2022/05/18 08:48:10;;;;;;;6.83;2.40;;;30.40;40.80;;;;;;4994672;28;20464;-68
2022/05/18 08:50:39;;;;;;;2.77;2.30;;;30.50;39.90;;;;;;4995008;28;20456;-69
2022/05/18 08:53:32;;;;;;;4.23;2.40;;;30.70;40.40;;;;;;4994686;28;20449;-68
2022/05/18 08:56:04;;;;;;;2.90;1.73;;;31.00;39.10;;;;;;4994945;28;20443;-69
2022/05/18 08:58:39;;;;;;;3.50;2.03;;;31.30;39.30;;;;;;4994739;28;20464;-68
2022/05/18 09:01:11;;;;;;;3.90;2.20;;;31.60;39.10;;;;;;4995034;28;20475;-68
2022/05/18 09:03:41;;;;;;;3.27;2.20;;;31.90;38.70;;;;;;4994950;28;20439;-69
2022/05/18 09:06:17;;;;;;;3.40;2.47;;;32.20;39.00;;;;;;4994878;28;20472;-68
2022/05/18 09:10:12;;;;;;;2.77;2.20;;;32.50;37.50;;;;;;4994853;28;20471;-68
2022/05/18 09:11:38;;;;;;;4.50;2.40;;;32.80;36.50;;;;;;4994182;28;20440;-69
2022/05/18 09:14:06;;;;;;;3.07;2.30;;;33.20;37.40;;;;;;4994318;28;20448;-69
2022/05/18 09:16:40;;;;;;;6.77;2.57;;;33.50;37.50;;;;;;4994397;28;20902;-68
2022/05/18 09:19:15;;;;;;;6.13;2.90;;;33.80;37.80;;;;;;4994399;28;20439;-68
2022/05/18 09:22:09;;;;;;;3.20;2.07;;;34.00;35.70;;;;;;4994563;28;20439;-68
2022/05/18 09:24:48;;;;;;;3.23;2.17;;;34.20;35.50;;;;;;4994048;28;20848;-68
2022/05/18 09:27:34;;;;;;;2.90;2.27;;;34.40;33.30;;;;;;4994109;28;20980;-68
2022/05/18 09:30:10;;;;;;;2.67;2.47;;;34.70;33.50;;;;;;4994167;28;20905;-68
2022/05/18 09:32:59;;;;;;;10.33;2.37;;;35.00;33.70;;;;;;4994086;28;20971;-68
2022/05/18 09:35:45;;;;;;;2.90;2.50;;;35.20;33.00;;;;;;4994362;28;20836;-67
2022/05/18 09:38:22;;;;;;;5.63;2.93;;;35.50;32.00;;;;;;4994133;28;20475;-67
2022/05/18 09:40:50;;;;;;;4.20;2.23;;;35.80;32.30;;;;;;4994285;28;20461;-67
2022/05/18 09:43:26;;;;;;;5.63;3.10;;;35.90;30.70;;;;;;4994202;28;20440;-67
2022/05/18 09:45:53;;;;;;;4.20;2.50;;;36.10;31.80;;;;;;4993779;28;20521;-67
2022/05/18 09:48:27;;;;;;;6.37;3.20;;;36.10;31.70;;;;;;4994155;28;20463;-67
2022/05/18 09:50:55;;;;;;;6.67;2.70;;;36.20;31.90;;;;;;4994191;28;20431;-67
2022/05/18 09:53:23;;;;;;;6.30;3.00;;;36.30;31.30;;;;;;4994119;28;20436;-67
2022/05/18 09:55:51;;;;;;;3.27;2.67;;;36.50;31.10;;;;;;4993810;28;20688;-67
2022/05/18 09:58:22;;;;;;;8.87;2.30;;;36.80;31.50;;;;;;4993984;28;20467;-67
2022/05/18 10:00:49;;;;;;;3.00;2.57;;;37.10;30.20;;;;;;4993752;28;20957;-68
2022/05/18 10:08:56;;;;;;;4.23;2.20;;;38.00;29.40;;;;;;4993709;28;20294;-68
2022/05/18 10:11:26;;;;;;;6.47;2.90;;;38.00;28.60;;;;;;4993946;28;20220;-68
2022/05/18 10:14:02;;;;;;;9.37;2.90;;;38.00;28.70;;;;;;4994741;28;20211;-68
2022/05/18 10:16:39;;;;;;;7.90;2.90;;;38.20;28.90;;;;;;4993885;28;20204;-68
2022/05/18 10:19:07;;;;;;;12.95;2.88;;;38.30;28.40;;;;;;4993809;28;20184;-68
2022/05/18 10:21:40;;;;;;;5.22;2.45;;;38.40;29.10;;;;;;4993853;28;20209;-68
2022/05/18 10:24:26;;;;;;;6.30;2.75;;;38.60;28.30;;;;;;4993556;28;20609;-67
2022/05/18 10:27:13;;;;;;;6.03;2.10;;;39.00;27.90;;;;;;4993691;28;20244;-66
2022/05/18 10:29:41;;;;;;;4.97;3.13;;;39.50;28.50;;;;;;4993731;28;20284;-66
2022/05/18 10:32:10;;;;;;;3.85;2.35;;;39.90;27.70;;;;;;4993834;28;20213;-66
2022/05/18 10:34:44;;;;;;;4.53;2.83;;;40.20;26.30;;;;;;4993744;28;20200;-66
2022/05/18 10:37:13;;;;;;;6.93;2.88;;;40.40;25.30;;;;;;4993692;28;20311;-66
2022/05/18 10:39:44;;;;;;;3.53;2.70;;;40.40;25.60;;;;;;4993770;28;20212;-66
2022/05/18 10:42:17;;;;;;;8.93;2.58;;;40.60;25.70;;;;;;4993408;28;20557;-66
2022/05/18 10:44:45;;;;;;;3.15;2.33;;;41.00;25.00;;;;;;4993618;28;20251;-66
2022/05/18 10:47:26;;;;;;;5.10;2.47;;;41.40;24.50;;;;;;4993466;28;20266;-66
2022/05/18 10:49:55;;;;;;;7.18;2.75;;;41.90;24.40;;;;;;4993732;28;20199;-66
2022/05/18 10:52:30;;;;;;;5.32;2.00;;;42.50;23.00;;;;;;4993405;28;20637;-66
2022/05/18 10:55:02;;;;;;;5.65;2.65;;;43.00;22.90;;;;;;4993535;28;20193;-66
2022/05/18 10:57:32;;;;;;;6.00;2.45;;;43.30;22.60;;;;;;4994642;28;20240;-66
2022/05/18 11:00:07;;;;;;;2.80;2.15;;;43.40;21.90;;;;;;4996920;28;20192;-66
2022/05/18 11:02:40;;;;;;;5.78;2.70;;;42.80;22.50;;;;;;4997022;28;20191;-66
2022/05/18 11:05:20;;;;;;;4.38;2.50;;;42.10;23.70;;;;;;4996986;28;20536;-66
2022/05/18 11:07:47;;;;;;;3.10;2.42;;;42.00;24.70;;;;;;4997539;28;20246;-66
2022/05/18 11:10:15;;;;;;;2.70;1.88;;;42.50;24.40;;;;;;4997510;28;20211;-66
2022/05/18 11:12:49;;;;;;;4.45;2.80;;;43.00;24.10;;;;;;4997714;28;20204;-66
2022/05/18 11:15:27;;;;;;;4.60;2.72;;;43.70;23.20;;;;;;4997957;28;20565;-66
2022/05/18 11:18:04;;;;;;;2.90;2.25;;;44.30;22.40;;;;;;5000069;28;20246;-66
2022/05/18 11:20:42;;;;;;;4.82;2.75;;;44.10;22.00;;;;;;5002321;28;20282;-66
2022/05/18 11:23:26;;;;;;;3.15;2.47;;;43.90;22.50;;;;;;5002307;28;20188;-66
2022/05/18 11:26:03;;;;;;;5.05;2.83;;;44.00;22.00;;;;;;4997702;28;20204;-66
2022/05/18 11:28:40;;;;;;;4.88;2.80;;;43.80;21.60;;;;;;4996440;28;20721;-66
2022/05/18 11:31:44;;;;;;;3.85;2.42;;;43.10;22.10;;;;;;4996667;28;20188;-66
2022/05/18 11:34:20;;;;;;;3.03;2.40;;;42.30;23.40;;;;;;4996801;28;20208;-66
2022/05/18 11:36:56;;;;;;;2.95;2.50;;;41.80;24.80;;;;;;4996444;28;20198;-66
2022/05/18 11:39:31;;;;;;;5.03;2.70;;;42.20;24.80;;;;;;4996427;28;20189;-67
2022/05/18 11:42:17;;;;;;;3.25;2.72;;;43.00;24.10;;;;;;4996233;28;20192;-66
2022/05/18 11:44:55;;;;;;;4.68;2.40;;;43.40;23.50;;;;;;4996387;28;20200;-66
2022/05/18 11:47:53;;;;;;;3.45;2.58;;;43.80;22.30;;;;;;4996154;28;20227;-66
2022/05/18 11:50:28;;;;;;;5.60;2.58;;;44.30;21.50;;;;;;4996090;28;20200;-66
2022/05/18 11:53:12;;;;;;;5.05;2.65;;;44.40;20.80;;;;;;4996088;28;20247;-66
2022/05/18 11:55:50;;;;;;;4.25;2.40;;;44.20;20.90;;;;;;4995793;28;20669;-66
2022/05/18 11:58:41;;;;;;;4.93;2.70;;;44.30;20.80;;;;;;4995827;28;20567;-66
2022/05/18 12:01:15;;;;;;;2.60;2.20;;;44.70;20.20;;;;;;4995570;28;20216;-66
2022/05/18 12:04:07;;;;;;;4.45;2.55;;;45.20;19.40;;;;;;4995975;28;20276;-66
2022/05/18 12:06:50;;;;;;;4.43;2.60;;;45.50;19.60;;;;;;4994703;28;20307;-68
2022/05/18 12:09:32;;;;;;;3.22;2.10;;;45.80;18.80;;;;;;4995654;28;20196;-68
2022/05/18 12:12:06;;;;;;;5.30;2.42;;;46.10;19.30;;;;;;4995428;28;20634;-68
2022/05/18 12:14:41;;;;;;;5.20;2.65;;;46.40;19.20;;;;;;4995676;28;20188;-68
2022/05/18 12:17:14;;;;;;;5.93;2.40;;;46.70;18.70;;;;;;4995455;28;20227;-68
2022/05/18 12:19:48;;;;;;;2.60;2.40;;;47.00;18.30;;;;;;4995652;28;20197;-68
2022/05/18 12:22:20;;;;;;;4.63;2.50;;;47.30;17.50;;;;;;4995513;28;20192;-69
2022/05/18 12:24:49;;;;;;;3.45;2.30;;;47.40;17.50;;;;;;4995573;28;20614;-69
2022/05/18 12:27:18;;;;;;;6.05;2.83;;;47.50;18.10;;;;;;4994929;28;20728;-69
2022/05/18 12:29:47;;;;;;;8.95;2.58;;;47.70;17.60;;;;;;4995024;28;20204;-68
2022/05/18 12:32:15;;;;;;;4.22;2.45;;;47.90;16.80;;;;;;4995442;28;20204;-68
2022/05/18 12:34:54;;;;;;;2.53;1.90;;;47.90;17.20;;;;;;4995370;28;20208;-68
2022/05/18 12:37:28;;;;;;;1.80;1.67;;;48.10;17.40;;;;;;4995230;28;20228;-68
2022/05/18 12:40:19;;;;;;;4.43;2.10;;;48.20;16.90;;;;;;4995287;28;20184;-69
2022/05/18 12:42:56;;;;;;;3.15;2.00;;;48.70;17.50;;;;;;4995223;28;20288;-69
2022/05/18 12:45:36;;;;;;;3.40;2.53;;;49.40;17.40;;;;;;4994871;28;20661;-69
2022/05/18 12:48:11;;;;;;;4.35;1.90;;;50.10;16.90;;;;;;4994717;28;20706;-69
2022/05/18 12:50:44;;;;;;;2.10;1.90;;;50.60;14.30;;;;;;4994884;28;20638;-69
2022/05/18 12:53:18;;;;;;;5.25;1.90;;;51.10;14.70;;;;;;4995069;28;20196;-69
2022/05/18 12:55:57;;;;;;;3.30;2.03;;;51.30;13.10;;;;;;4994949;28;20239;-69
2022/05/18 12:58:28;;;;;;;2.80;1.70;;;51.50;13.00;;;;;;4994845;28;20228;-69
2022/05/18 13:01:10;;;;;;;4.63;2.17;;;52.10;13.50;;;;;;4994559;28;20208;-68
2022/05/18 13:04:00;;;;;;;4.40;2.17;;;52.40;11.80;;;;;;4994834;28;20188;-69
2022/05/18 13:06:43;;;;;;;3.83;1.90;;;52.20;12.00;;;;;;4991847;28;20224;-68
2022/05/18 13:09:35;;;;;;;3.80;1.88;;;51.40;13.30;;;;;;4994720;28;20192;-68
2022/05/18 13:12:27;;;;;;;7.05;1.70;;;50.50;14.70;;;;;;4994347;28;20593;-69
2022/05/18 13:15:01;;;;;;;3.35;1.90;;;49.50;14.50;;;;;;4994633;28;20235;-70
2022/05/18 13:17:49;;;;;;;2.97;1.92;;;48.70;14.60;;;;;;4994516;28;20275;-69
2022/05/18 13:20:47;;;;;;;2.15;1.95;;;48.50;15.20;;;;;;4994117;28;20205;-70